Kezdőlap
METAR-TAF:

METAR-TAF

Repülőterek :

Eszék, Horvátország

földrajzi szélesség: 45-27N, földrajzi hosszúság: 018-48E, magasság: 88 m

Jelenlegi meteorológiai megfigyelések

A jelentés 12 perccel ezelõtt készült, 09:00 UTC
Észak-északkeleti szél 9 kt
Hőmérséklet 6°C
Páratartalom 75%
Légköri nyomás 1029 hPa
Látótávolság 10 km, vagy több
felhőtlen 1500 m magasságban, és nincs gomolyfelhõ

METAR: LDOS 160900Z 03009KT CAVOK 06/02 Q1029

Idő: 10:12 (09:12 UTC)

Előrejelzés

A jelentés 3 órával és 47 perccel ezelõtt készült, 05:25 UTC
Az előrejelzés 16-én 06 óra UTC és 17-én 06 óra UTC között érvényes
Észak-északkeleti szél 8 kt
Látótávolság 10 km, vagy több
felhőtlen 1500 m magasságban, és nincs gomolyfelhõ
Valószínűség 30% :
16-én 11 óra UTC és 16-én 16 óra UTC között ideiglenes
Észak-északkeleti szél 15 kt

TAF: LDOS 160525Z 1606/1706 02008KT CAVOK TX11/1613Z TN00/1705Z PROB30 TEMPO 1611/1616 02015KT

Meteorológiai megfigyelések és előrejelzések több, mint 4000 repülőtéren (METAR és TAF jelentéseket).

A térképen piros és sárga pontok jelzik az elérhető meteorológiai állomásokat.

Mozgassa az egeret a pont fölött, hogy megjelenjen az állomás neve.

Azután kattintson az időjárási megfigyelések és előrejelzések megtekintéséhez.

A térkép megváltoztatása: kattintson a fekete keresztel jelölt zöld gombra ráközelítéshez, a vonallal jelölt zöld gombra távolításhoz, vagy a zöld nyilakra a szomszédos térképek eléréséhez.


METAR-TAF: